Wednesday, March 22, 2017, 10:15 PM EDT
Back to Local

KBGR, Bangor Int'l Airport

Location: Bangor, ME, United States Lat: 44.8
Local Time: 10:15 PM EDT ( 2:15 GMT) Lon: -68.817
Time Zone: US/Eastern Elev: 193 ft

Show me the last for .
Show Decoded

2017-03-22 21:53 METAR KBGR 230153Z 32019G29KT 10SM CLR M09/M19 A3009 RMK AO2 PK WND 33034/0059
                 SLP194 T10941194 =
2017-03-22 20:53 METAR KBGR 230053Z 31022G33KT 10SM CLR M09/M19 A3006 RMK AO2 PK WND 31039/0020
                 SLP183 T10891194 =
2017-03-22 19:53 METAR KBGR 222353Z 31023G34KT 10SM SCT085 M08/M19 A3001 RMK AO2 PK WND
                 31039/2335 SLP166 4/006 60000 T10831189 11067 21083 53041 =
2017-03-22 18:53 METAR KBGR 222253Z 31022G37KT 10SM SCT085 M08/M18 A2997 RMK AO2 PK WND
                 32041/2231 PRESRR SLP153 P0000 T10781178 =
2017-03-22 17:53 METAR KBGR 222153Z 32027G39KT 10SM BKN042 M07/M16 A2992 RMK AO2 PK WND
                 32039/2149 SNB50E51 SLP137 P0000 T10721161 =
2017-03-22 16:53 METAR KBGR 222053Z 31030G38KT 5SM BLSN OVC045 M07/M14 A2989 RMK AO2 PK WND
                 33042/2008 SLP125 60000 T10721144 53021 =
2017-03-22 16:24 METAR KBGR 222024Z 31024G39KT 6SM BLSN BKN039 OVC046 M07/M14 A2988 RMK AO2 PK
                 WND 33042/2008 T10721139 =
2017-03-22 15:53 METAR KBGR 221953Z 31025G37KT 2SM BLSN OVC036 M07/M13 A2987 RMK AO2 PK WND
                 33037/1933 SFC VIS 3 SNB1855E49 SLP118 P0000 T10721133 =
2017-03-22 14:53 METAR KBGR 221853Z 33026G32KT 2SM BLSN FEW029 OVC036 M07/M13 A2984 RMK AO2 PK
                 WND 32037/1807 SFC VIS 4 SNE48 SLP109 P0000 T10671128 =
2017-03-22 14:40 METAR KBGR 221840Z 32027G33KT 2SM -SN OVC034 M07/M13 A2984 RMK AO2 PK WND
                 32037/1807 SFC VIS 5 P0000 T10721128 =
2017-03-22 13:53 METAR KBGR 221753Z 32028G36KT 1 3/4SM -SN BKN027 OVC032 M07/M12 A2983 RMK AO2 PK
                 WND 32036/1740 SLP103 4/006 P0000 60000 T10671122 10011 21072 51024 =
2017-03-22 12:58 METAR KBGR 221658Z 33027G34KT 1 3/4SM -SN FEW025 OVC031 M06/M12 A2981 RMK AO2 PK
                 WND 33034/1657 TWR VIS 2 1/2 VIS 3/4V5 P0000 T10611122 =
2017-03-22 12:53 METAR KBGR 221653Z 31018G28KT 5SM -SN FEW027 BKN035 OVC043 M06/M13 A2981 RMK AO2
                 PK WND 33033/1617 SNB48 SLP096 P0000 T10611128 =
2017-03-22 11:53 METAR KBGR 221553Z 30017G30KT 10SM OVC055 M05/M13 A2979 RMK AO2 PK WND
                 32031/1523 SNE08 SLP091 P0000 T10501128 =
2017-03-22 11:12 METAR KBGR 221512Z 31021G31KT 7SM FEW029 BKN037 OVC048 M05/M11 A2976 RMK AO2 PK
                 WND 30031/1504 SNE08 P0000 T10501111 =
2017-03-22 10:53 METAR KBGR 221453Z 31016G28KT 3SM -SN BKN019 OVC032 M06/M10 A2975 RMK AO2 PK WND
                 32031/1437 SFC VIS 4 SLP078 P0000 60000 T10561100 53038 =
2017-03-22 10:18 METAR KBGR 221418Z 31017G22KT 1SM R15/3500VP6000FT -SN SCT018 BKN024 OVC044
                 M04/M07 A2974 =
2017-03-22 10:11 METAR KBGR 221411Z 31015G28KT 2SM R15/5500VP6000FT -SN BKN018 OVC044 M04/M08
                 A2973 RMK AO2 PK WND 31028/1405 TWR VIS 3 P0000 T10441078 =
2017-03-22 09:53 METAR KBGR 221353Z 31015KT 3SM -SN FEW011 BKN018 OVC037 M03/M06 A2972 RMK AO2 PK
                 WND 32035/1332 SNB08 SLP064 P0000 T10281056 =
2017-03-22 09:46 METAR KBGR 221346Z 32022G31KT 3SM -SN SCT011 BKN016 OVC037 M03/M06 A2971 RMK AO2
                 PK WND 32035/1332 SNB08 P0000 T10281061 =
2017-03-22 09:10 METAR KBGR 221310Z 30013G18KT 3SM -SN BKN012 OVC043 01/M01 A2967 RMK AO2 SFC VIS
                 8 SNB08 P0000 T00061011 =
2017-03-22 08:53 METAR KBGR 221253Z 27006KT 10SM BKN046 01/M01 A2966 RMK AO2 SLP045 T00111011 =
2017-03-22 07:53 METAR KBGR 221153Z 00000KT 10SM FEW025 SCT040 M02/M02 A2964 RMK AO2 SLP039 4/006
                 I6001 T10171022 10011 21039 58005 =
2017-03-22 06:53 METAR KBGR 221053Z COR 00000KT 3SM BCFG FEW025 SCT040 M04/M04 A2965 =
2017-03-22 05:53 METAR KBGR 220953Z 00000KT 6SM BR SCT042 M02/M02 A2965 RMK AO2 SLP043 I1000
                 T10171022 =
2017-03-22 04:53 METAR KBGR 220853Z 22004KT 5SM BR SCT023 M02/M02 A2966 RMK AO2 SLP044 I1000
                 I3000 T10221022 56010 =
2017-03-22 04:29 METAR KBGR 220829Z 22005KT 5SM BR SCT023 M02/M03 A2966 RMK AO2 I1000 T10221028 =
2017-03-22 03:53 METAR KBGR 220753Z 00000KT 10SM BKN023 M01/M01 A2966 RMK AO2 SLP045 T10061011 =
2017-03-22 03:19 METAR KBGR 220719Z 22003KT 10SM BKN014 01/00 A2967 RMK AO2 T00060000 =
2017-03-22 02:53 METAR KBGR 220653Z 24005KT 9SM OVC015 01/00 A2968 RMK AO2 SLP050 T00060000 =
2017-03-22 02:45 METAR KBGR 220645Z 24005KT 8SM BKN015 M01/M01 A2968 RMK AO2 T10061006 =
2017-03-22 01:53 METAR KBGR 220553Z 26003KT 10SM FEW016 SCT030 01/00 A2969 RMK AO2 SLP053 4/006
                 60000 T00110000 10044 20000 56013 =
2017-03-22 00:53 METAR KBGR 220453Z 00000KT 10SM FEW016 SCT023 OVC033 01/01 A2970 RMK AO2 SLP059
                 T00110006 400781061 =
2017-03-22 00:23 METAR KBGR 220423Z 00000KT 10SM BKN024 OVC033 02/01 A2971 RMK AO2 T00220006 =
2017-03-21 23:53 METAR KBGR 220353Z 21003KT 10SM SCT028 OVC036 02/01 A2972 RMK AO2 SLP066
                 T00220006 =
2017-03-21 22:53 METAR KBGR 220253Z 28003KT 10SM OVC024 02/01 A2974 RMK AO2 RAE05B33E53PLB36E39
                 SLP071 P0000 60000 T00220006 58003 =
2017-03-21 22:42 METAR KBGR 220242Z 30006KT 7SM -RA OVC024 02/00 A2974 RMK AO2 RAE05B33PLB36E39
                 P0000 T00220000 =

Support USWX by starting your Amazon purchase here.